Koltsovo Airport
USSS : now visible

Airfield :











YOU CAN JOIN US ON...

 
LOGIN :

Register | Disclaimer

   EN    FR    IT 

 









Legend :    VFR   Marginal VFR   IFR   Intensive IFR   Very Intensive IFR
Visi :
Ceiling :
>= 8 km
>= 3000ft
5 to 8 km
1000 to 3000 ft
1500m to 5 km
500 to 1000 ft
800 to 1500m
200 to 500 ft
< 800m
< 200 ft
Symbols :   Thunderstorms  Fog  Heavy snow  Heavy precipitations  Wind > 20 kt






- Airport Elevation : 764 ft
- IATA code : SVX


USSS - Koltsovo

CURRENT METAR :
  • 231600Z 18003MPS CAVOK M09/M11 Q1028 R26R/110050 NOSIG RMK QFE750/1000

EXPIRED METARs :
  • 231530Z 15003MPS CAVOK M11/M12 Q1028 R08L/110050 NOSIG RMK QFE751/1001
  • 231500Z 13002MPS CAVOK M08/M11 Q1028 R08L/110050 NOSIG RMK QFE751/1001
  • 231430Z 14002MPS CAVOK M08/M11 Q1028 R08L/110050 NOSIG RMK QFE751/1001
  • 231400Z 13002MPS 100V160 CAVOK M07/M11 Q1028 R08L/110050 NOSIG RMK QFE751/1001
  • 231330Z 16004MPS CAVOK M06/M10 Q1028 R08L/110050 NOSIG RMK QFE751/1001

TAF TAF USSS
Valid from the 23 at 15:00 until the 24 at 15:00 UTC


231352Z 2315/2415 14003MPS 9999 SCT016
BECMG 2403/2405 17003G13MPS
USSS FIR / Asia



MET'MAP, your aeronautical weather chart ! - Copyright ORBIFLY December 2007 - Disclaimer

ORBIFLY MET'MAP TEAM :

Programming & Development : Alexandra Zaïnal
Concept & original design : Baudouin d'Aumeries
Assistance for programming : Marc-Olivier Méhu
Technical & hardware support : Manuel Goepfert

Contact : metmap@orbifly.com




SOURCES & CREDITS :

   NOAA       Earth
Advisory